Time;durP1;ratioP1;P1;durP2;ratioP2;P2;SDS_P1;SDS_P2;PMS_P1;PMS_P2;Temp;Humidity;BMP_temperature;BMP_pressure;BME280_temperature;BME280_humidity;BME280_pressure;Samples;Min_cycle;Max_cycle;Signal;HPM_P1;HPM_P2
2022/04/05 00:00:11;;;;;;;1.65;0.77;;;;;;;;;;5092104;28;20024;-62
2022/04/05 00:02:37;;;;;;;4.43;1.20;;;;;;;;;;5090931;28;20032;-61
2022/04/05 00:05:03;;;;;;;0.82;0.70;;;;;;;;;;5092169;28;20028;-62
2022/04/05 00:07:29;;;;;;;0.93;0.70;;;;;;;;;;5089741;28;20385;-62
2022/04/05 00:09:55;;;;;;;1.20;0.90;;;;;;;;;;5091687;28;20035;-62
2022/04/05 00:12:21;;;;;;;1.55;1.10;;;;;;;;;;5090932;28;20036;-62
2022/04/05 00:14:47;;;;;;;0.73;0.68;;;;;;;;;;5091802;28;20107;-62
2022/04/05 00:17:14;;;;;;;0.95;0.70;;;;;;;;;;5090864;28;20020;-62
2022/04/05 00:19:40;;;;;;;1.58;0.75;;;;;;;;;;5090200;28;20035;-62
2022/04/05 00:22:06;;;;;;;1.98;0.80;;;;;;;;;;5091767;28;20469;-62
2022/04/05 00:24:32;;;;;;;1.13;0.90;;;;;;;;;;5091276;28;20043;-62
2022/04/05 00:26:58;;;;;;;1.10;0.90;;;;;;;;;;5091487;28;20351;-62
2022/04/05 00:29:24;;;;;;;1.00;0.90;;;;;;;;;;5090972;28;20036;-62
2022/04/05 00:31:51;;;;;;;1.63;0.70;;;;;;;;;;5091522;28;20484;-62
2022/04/05 00:34:17;;;;;;;1.20;0.80;;;;;;;;;;5091834;28;20043;-62
2022/04/05 00:36:43;;;;;;;1.25;0.70;;;;;;;;;;5090911;28;20070;-62
2022/04/05 00:39:09;;;;;;;3.05;1.05;;;;;;;;;;5091784;28;20128;-62
2022/04/05 00:41:35;;;;;;;1.30;0.90;;;;;;;;;;5090427;28;20031;-62
2022/04/05 00:44:01;;;;;;;1.15;0.77;;;;;;;;;;5091590;28;20024;-62
2022/04/05 00:46:27;;;;;;;0.80;0.70;;;;;;;;;;5090457;28;20028;-62
2022/04/05 00:48:57;;;;;;;2.08;0.80;;;;;;;;;;5091316;28;20115;-62
2022/04/05 00:51:25;;;;;;;0.65;0.65;;;;;;;;;;5090223;28;20082;-62
2022/04/05 00:53:53;;;;;;;0.93;0.68;;;;;;;;;;5091806;28;20055;-61
2022/04/05 00:56:19;;;;;;;3.22;1.10;;;;;;;;;;5091310;28;20424;-62
2022/04/05 00:58:50;;;;;;;1.27;0.80;;;;;;;;;;5090976;28;20111;-62
2022/04/05 01:01:18;;;;;;;1.45;0.90;;;;;;;;;;5091927;28;20028;-62
2022/04/05 01:03:48;;;;;;;1.23;0.80;;;;;;;;;;5091209;28;20055;-62
2022/04/05 01:06:24;;;;;;;1.10;0.80;;;;;;;;;;5092339;28;20041;-62
2022/04/05 01:08:50;;;;;;;1.90;1.20;;;;;;;;;;5094907;28;20040;-62
2022/04/05 01:11:16;;;;;;;1.10;0.82;;;;;;;;;;5084153;28;20477;-62
2022/04/05 01:13:43;;;;;;;1.67;0.77;;;;;;;;;;5094002;28;20024;-62
2022/04/05 01:16:10;;;;;;;0.88;0.70;;;;;;;;;;5094797;28;20036;-62
2022/04/05 01:18:36;;;;;;;1.27;0.90;;;;;;;;;;5094004;28;20115;-62
2022/04/05 01:21:02;;;;;;;1.10;0.70;;;;;;;;;;5094595;28;20043;-62
2022/04/05 01:23:28;;;;;;;1.17;0.90;;;;;;;;;;5094292;28;20028;-62
2022/04/05 01:25:56;;;;;;;1.52;0.93;;;;;;;;;;5095162;28;20381;-62
2022/04/05 01:28:23;;;;;;;1.13;0.82;;;;;;;;;;5093715;28;20416;-62
2022/04/05 01:30:49;;;;;;;0.80;0.70;;;;;;;;;;5094628;28;20112;-62
2022/04/05 01:33:15;;;;;;;2.75;1.23;;;;;;;;;;5094594;28;20027;-62
2022/04/05 01:35:42;;;;;;;1.10;0.90;;;;;;;;;;5093823;28;20028;-62
2022/04/05 01:38:09;;;;;;;0.85;0.77;;;;;;;;;;5093993;28;20497;-62
2022/04/05 01:40:35;;;;;;;0.85;0.70;;;;;;;;;;5093619;28;20020;-62
2022/04/05 01:43:01;;;;;;;0.93;0.75;;;;;;;;;;5075330;28;20040;-62
2022/04/05 01:45:27;;;;;;;1.00;0.77;;;;;;;;;;5073410;28;20103;-62
2022/04/05 01:47:53;;;;;;;0.80;0.70;;;;;;;;;;5074268;28;20025;-62
2022/04/05 01:50:19;;;;;;;1.08;0.98;;;;;;;;;;5077229;28;20524;-62
2022/04/05 01:52:45;;;;;;;1.25;1.05;;;;;;;;;;5079119;28;20512;-62
2022/04/05 01:55:11;;;;;;;1.35;0.93;;;;;;;;;;5087347;28;20055;-62
2022/04/05 01:57:37;;;;;;;1.15;0.98;;;;;;;;;;5093368;28;20054;-62
2022/04/05 02:00:04;;;;;;;0.93;0.80;;;;;;;;;;5094135;28;20016;-62
2022/04/05 02:02:30;;;;;;;1.63;0.90;;;;;;;;;;5075456;28;20094;-62
2022/04/05 02:04:56;;;;;;;1.25;0.90;;;;;;;;;;5073576;28;20043;-62
2022/04/05 02:07:23;;;;;;;1.20;0.80;;;;;;;;;;5091192;28;20139;-62
2022/04/05 02:09:49;;;;;;;1.08;0.68;;;;;;;;;;5094230;28;20052;-62
2022/04/05 02:12:18;;;;;;;0.98;0.70;;;;;;;;;;5093846;28;20028;-62
2022/04/05 02:14:44;;;;;;;1.35;0.80;;;;;;;;;;5084620;28;20067;-62
2022/04/05 02:17:11;;;;;;;2.88;1.02;;;;;;;;;;5076671;28;20466;-62
2022/04/05 02:19:38;;;;;;;1.33;0.90;;;;;;;;;;5092276;28;20032;-62
2022/04/05 02:22:04;;;;;;;1.50;0.80;;;;;;;;;;5076653;28;20041;-62
2022/04/05 02:24:31;;;;;;;1.02;0.75;;;;;;;;;;5072662;28;20390;-62
2022/04/05 02:26:57;;;;;;;2.13;1.00;;;;;;;;;;5073341;28;20096;-61
2022/04/05 02:29:23;;;;;;;1.88;0.85;;;;;;;;;;5072996;28;20107;-62
2022/04/05 02:31:49;;;;;;;0.80;0.63;;;;;;;;;;5072577;28;20037;-62
2022/04/05 02:34:15;;;;;;;1.48;0.80;;;;;;;;;;5073575;28;20029;-62
2022/04/05 02:36:41;;;;;;;1.20;1.00;;;;;;;;;;5072999;28;20230;-61
2022/04/05 02:39:08;;;;;;;1.05;0.82;;;;;;;;;;5088618;28;20377;-61
2022/04/05 02:41:34;;;;;;;1.25;0.98;;;;;;;;;;5092570;28;20020;-61
2022/04/05 02:44:00;;;;;;;0.90;0.60;;;;;;;;;;5093083;28;20032;-62
2022/04/05 02:46:26;;;;;;;1.13;0.90;;;;;;;;;;5091880;28;20035;-62
2022/04/05 02:48:54;;;;;;;1.65;0.95;;;;;;;;;;5093441;28;20024;-62
2022/04/05 02:51:21;;;;;;;1.10;0.70;;;;;;;;;;5093019;28;20059;-62
2022/04/05 02:53:47;;;;;;;1.38;0.88;;;;;;;;;;5092745;28;20024;-62
2022/04/05 02:56:13;;;;;;;1.95;0.93;;;;;;;;;;5093364;28;20016;-62
2022/04/05 02:58:40;;;;;;;1.33;0.70;;;;;;;;;;5092418;28;20065;-62
2022/04/05 03:01:06;;;;;;;1.83;0.75;;;;;;;;;;5092072;28;20104;-62
2022/04/05 03:03:32;;;;;;;2.08;1.10;;;;;;;;;;5092132;28;20028;-62
2022/04/05 03:05:58;;;;;;;1.23;0.70;;;;;;;;;;5088129;28;20035;-62
2022/04/05 03:08:24;;;;;;;1.13;0.90;;;;;;;;;;5092289;28;20043;-62
2022/04/05 03:10:51;;;;;;;0.90;0.77;;;;;;;;;;5092738;28;20039;-62
2022/04/05 03:13:17;;;;;;;3.50;1.27;;;;;;;;;;5092899;28;20020;-63
2022/04/05 03:15:43;;;;;;;1.20;0.88;;;;;;;;;;5091750;28;20023;-62
2022/04/05 03:18:09;;;;;;;1.00;0.68;;;;;;;;;;5074378;28;20411;-62
2022/04/05 03:20:35;;;;;;;1.40;1.10;;;;;;;;;;5091475;28;20111;-62
2022/04/05 03:23:01;;;;;;;1.55;0.90;;;;;;;;;;5092632;28;20031;-62
2022/04/05 03:25:28;;;;;;;1.00;0.80;;;;;;;;;;5091932;28;20019;-62
2022/04/05 03:27:54;;;;;;;1.65;0.80;;;;;;;;;;5092824;28;20035;-62
2022/04/05 03:30:21;;;;;;;1.02;0.80;;;;;;;;;;5092113;28;20027;-62
2022/04/05 03:32:47;;;;;;;1.30;0.77;;;;;;;;;;5080949;28;20040;-60
2022/04/05 03:35:13;;;;;;;2.20;1.08;;;;;;;;;;5092225;28;20039;-61
2022/04/05 03:37:40;;;;;;;1.42;0.73;;;;;;;;;;5091473;28;20089;-61
2022/04/05 03:40:06;;;;;;;1.42;0.80;;;;;;;;;;5091964;28;20428;-61
2022/04/05 03:42:33;;;;;;;0.77;0.77;;;;;;;;;;5091500;28;20028;-61
2022/04/05 03:44:59;;;;;;;1.17;0.85;;;;;;;;;;5092350;28;20024;-62
2022/04/05 03:47:26;;;;;;;2.60;1.17;;;;;;;;;;5091765;28;20016;-61
2022/04/05 03:49:52;;;;;;;3.33;0.80;;;;;;;;;;5091645;28;20024;-61
2022/04/05 03:52:19;;;;;;;1.10;0.85;;;;;;;;;;5092224;28;20036;-61
2022/04/05 03:54:45;;;;;;;0.52;0.50;;;;;;;;;;5091436;28;20023;-61
2022/04/05 03:57:11;;;;;;;1.25;0.80;;;;;;;;;;5091807;28;20106;-61
2022/04/05 03:59:37;;;;;;;1.27;0.90;;;;;;;;;;5091226;28;20028;-61
2022/04/05 04:02:04;;;;;;;0.80;0.80;;;;;;;;;;5091890;28;20023;-61
2022/04/05 04:04:30;;;;;;;0.98;0.70;;;;;;;;;;5090864;28;20032;-60
2022/04/05 04:06:56;;;;;;;1.35;0.90;;;;;;;;;;5091971;28;20051;-60
2022/04/05 04:09:22;;;;;;;1.35;1.23;;;;;;;;;;5091727;28;20024;-60
2022/04/05 04:11:48;;;;;;;2.08;0.90;;;;;;;;;;5091174;28;20032;-61
2022/04/05 04:14:14;;;;;;;3.28;1.35;;;;;;;;;;5092124;28;20111;-61
2022/04/05 04:16:40;;;;;;;1.85;0.90;;;;;;;;;;5090704;28;20024;-61
2022/04/05 04:19:06;;;;;;;0.80;0.77;;;;;;;;;;5091525;28;20068;-61
2022/04/05 04:21:32;;;;;;;1.13;0.80;;;;;;;;;;5090088;28;20052;-61
2022/04/05 04:23:58;;;;;;;2.33;1.08;;;;;;;;;;5092303;28;20028;-61
2022/04/05 04:26:24;;;;;;;1.30;0.90;;;;;;;;;;5091504;28;20034;-61
2022/04/05 04:28:51;;;;;;;1.83;1.10;;;;;;;;;;5091067;28;20480;-61
2022/04/05 04:31:17;;;;;;;1.25;0.80;;;;;;;;;;5090722;28;20476;-61
2022/04/05 04:33:43;;;;;;;1.42;0.90;;;;;;;;;;5090882;28;20392;-61
2022/04/05 04:36:10;;;;;;;2.20;0.80;;;;;;;;;;5092162;28;20024;-61
2022/04/05 04:38:36;;;;;;;2.38;1.02;;;;;;;;;;5072088;28;20397;-61
2022/04/05 04:41:02;;;;;;;0.80;0.70;;;;;;;;;;5091937;28;20032;-61
2022/04/05 04:43:28;;;;;;;1.17;0.73;;;;;;;;;;5095282;28;20074;-60
2022/04/05 04:45:55;;;;;;;0.75;0.63;;;;;;;;;;5095436;28;20031;-61
2022/04/05 04:48:21;;;;;;;1.75;0.70;;;;;;;;;;5095916;28;20111;-61
2022/04/05 04:50:47;;;;;;;1.42;1.00;;;;;;;;;;5094217;28;20028;-60
2022/04/05 04:53:13;;;;;;;1.40;0.80;;;;;;;;;;5095368;28;20020;-60
2022/04/05 04:55:39;;;;;;;1.15;0.95;;;;;;;;;;5094785;28;20020;-61
2022/04/05 04:58:06;;;;;;;0.95;0.77;;;;;;;;;;5095616;28;20076;-61
2022/04/05 05:00:32;;;;;;;3.78;0.90;;;;;;;;;;5094510;28;20043;-61
2022/04/05 05:02:58;;;;;;;1.00;0.80;;;;;;;;;;5095280;28;20024;-61
2022/04/05 05:05:24;;;;;;;1.77;0.90;;;;;;;;;;5077019;28;20028;-61
2022/04/05 05:07:51;;;;;;;0.85;0.80;;;;;;;;;;5094296;28;20035;-61
2022/04/05 05:10:17;;;;;;;1.50;1.00;;;;;;;;;;5093992;28;20489;-61
2022/04/05 05:12:43;;;;;;;2.50;1.10;;;;;;;;;;5094062;28;20027;-61
2022/04/05 05:15:10;;;;;;;0.82;0.80;;;;;;;;;;5095180;28;20025;-61
2022/04/05 05:17:37;;;;;;;3.13;1.10;;;;;;;;;;5094129;28;20052;-61
2022/04/05 05:20:03;;;;;;;1.50;0.82;;;;;;;;;;5094478;28;20032;-61
2022/04/05 05:22:29;;;;;;;1.13;0.80;;;;;;;;;;5094254;28;20427;-61
2022/04/05 05:24:55;;;;;;;0.85;0.80;;;;;;;;;;5094744;28;20039;-61
2022/04/05 05:27:21;;;;;;;1.33;0.90;;;;;;;;;;5093677;28;20124;-62
2022/04/05 05:29:47;;;;;;;1.20;0.80;;;;;;;;;;5093447;28;20026;-61
2022/04/05 05:32:13;;;;;;;1.40;0.90;;;;;;;;;;5094537;28;20036;-61
2022/04/05 05:34:40;;;;;;;0.90;0.80;;;;;;;;;;5093422;28;20024;-61
2022/04/05 05:37:06;;;;;;;0.98;0.75;;;;;;;;;;5094035;28;20103;-61
2022/04/05 05:39:33;;;;;;;1.98;1.02;;;;;;;;;;5094008;28;20121;-61
2022/04/05 05:41:59;;;;;;;1.10;0.60;;;;;;;;;;5093911;28;20027;-61
2022/04/05 05:44:25;;;;;;;1.55;0.70;;;;;;;;;;5094362;28;20036;-62
2022/04/05 05:46:51;;;;;;;1.10;0.77;;;;;;;;;;5093556;28;20107;-61
2022/04/05 05:49:17;;;;;;;1.17;0.80;;;;;;;;;;5094747;28;20039;-62
2022/04/05 05:51:43;;;;;;;1.20;0.90;;;;;;;;;;5093263;28;20063;-62
2022/04/05 05:54:09;;;;;;;2.47;0.98;;;;;;;;;;5093215;28;20035;-63
2022/04/05 05:56:35;;;;;;;2.47;1.08;;;;;;;;;;5093295;28;20031;-61
2022/04/05 05:59:01;;;;;;;8.05;1.55;;;;;;;;;;5094093;28;20473;-61
2022/04/05 06:01:27;;;;;;;6.18;1.40;;;;;;;;;;5093692;28;20032;-62
2022/04/05 06:03:53;;;;;;;6.43;1.23;;;;;;;;;;5093818;28;20032;-62
2022/04/05 06:06:21;;;;;;;4.32;1.73;;;;;;;;;;5093908;28;20039;-61
2022/04/05 06:08:47;;;;;;;3.60;1.40;;;;;;;;;;5093261;28;20895;-64
2022/04/05 06:11:13;;;;;;;4.97;1.25;;;;;;;;;;5093840;28;20103;-59
2022/04/05 06:13:39;;;;;;;4.13;1.35;;;;;;;;;;5093185;28;20020;-61
2022/04/05 06:16:08;;;;;;;2.72;1.13;;;;;;;;;;5093860;28;20031;-61
2022/04/05 06:18:34;;;;;;;4.40;1.35;;;;;;;;;;5087447;28;20123;-60
2022/04/05 06:21:00;;;;;;;5.20;1.60;;;;;;;;;;5089400;28;20055;-59
2022/04/05 06:23:26;;;;;;;4.13;1.63;;;;;;;;;;5093302;28;20461;-60
2022/04/05 06:25:52;;;;;;;1.98;1.20;;;;;;;;;;5091946;28;20028;-58
2022/04/05 06:28:18;;;;;;;3.05;0.90;;;;;;;;;;5092742;28;20024;-59
2022/04/05 06:30:46;;;;;;;2.47;1.20;;;;;;;;;;5092572;28;20023;-59
2022/04/05 06:33:13;;;;;;;3.03;1.40;;;;;;;;;;5093775;28;20043;-63
2022/04/05 06:35:41;;;;;;;5.60;1.50;;;;;;;;;;5092328;28;20028;-60
2022/04/05 06:38:07;;;;;;;2.25;1.00;;;;;;;;;;5093496;28;20052;-61
2022/04/05 06:40:33;;;;;;;1.70;1.00;;;;;;;;;;5072041;28;20029;-60
2022/04/05 06:42:59;;;;;;;2.47;1.13;;;;;;;;;;5073363;28;20433;-61
2022/04/05 06:45:25;;;;;;;3.90;1.10;;;;;;;;;;5073411;28;20031;-60
2022/04/05 06:47:52;;;;;;;2.58;1.30;;;;;;;;;;5070899;28;20027;-62
2022/04/05 06:50:24;;;;;;;3.72;1.33;;;;;;;;;;5072117;28;20036;-63
2022/04/05 06:52:51;;;;;;;4.47;1.20;;;;;;;;;;5071147;28;20649;-63
2022/04/05 06:55:17;;;;;;;2.58;1.13;;;;;;;;;;5072369;28;20052;-63
2022/04/05 06:57:43;;;;;;;3.83;1.15;;;;;;;;;;5071683;28;20039;-63
2022/04/05 07:00:11;;;;;;;4.30;1.60;;;;;;;;;;5075161;28;20028;-61
2022/04/05 07:02:37;;;;;;;3.38;1.17;;;;;;;;;;5068534;28;20023;-60
2022/04/05 07:05:04;;;;;;;4.35;1.73;;;;;;;;;;5072360;28;20033;-61
2022/04/05 07:07:30;;;;;;;2.13;0.73;;;;;;;;;;5087622;28;20066;-61
2022/04/05 07:09:56;;;;;;;4.32;1.30;;;;;;;;;;5081110;28;20031;-61
2022/04/05 07:12:25;;;;;;;1.85;1.08;;;;;;;;;;5072345;28;20047;-61
2022/04/05 07:14:51;;;;;;;3.08;1.20;;;;;;;;;;5071968;28;20054;-61
2022/04/05 07:17:18;;;;;;;5.28;1.55;;;;;;;;;;5072505;28;20025;-61
2022/04/05 07:19:44;;;;;;;1.88;1.00;;;;;;;;;;5075656;28;20416;-60
2022/04/05 07:22:10;;;;;;;3.15;1.15;;;;;;;;;;5091763;28;20024;-61
2022/04/05 07:24:36;;;;;;;2.15;1.08;;;;;;;;;;5051838;28;20474;-61
2022/04/05 07:27:02;;;;;;;2.17;1.30;;;;;;;;;;5071765;28;20066;-61
2022/04/05 07:29:28;;;;;;;3.30;1.10;;;;;;;;;;5072353;28;20378;-61
2022/04/05 07:31:54;;;;;;;2.83;1.80;;;;;;;;;;5071650;28;20028;-61
2022/04/05 07:34:20;;;;;;;1.83;0.98;;;;;;;;;;5090346;28;20028;-61
2022/04/05 07:36:46;;;;;;;1.60;0.82;;;;;;;;;;5076434;28;20385;-60
2022/04/05 07:39:12;;;;;;;2.05;0.93;;;;;;;;;;5088981;28;20496;-60
2022/04/05 07:41:38;;;;;;;1.45;0.80;;;;;;;;;;5090375;28;20032;-60
2022/04/05 07:44:04;;;;;;;1.95;1.10;;;;;;;;;;5074199;28;20114;-60
2022/04/05 07:46:31;;;;;;;3.28;1.27;;;;;;;;;;5090263;28;20072;-60
2022/04/05 07:48:57;;;;;;;3.60;1.27;;;;;;;;;;5087343;28;20059;-61
2022/04/05 07:51:23;;;;;;;2.15;0.90;;;;;;;;;;5078961;28;20103;-60
2022/04/05 07:53:49;;;;;;;2.42;1.50;;;;;;;;;;5089847;28;20030;-60
2022/04/05 07:56:15;;;;;;;2.45;0.93;;;;;;;;;;5087926;28;20374;-60
2022/04/05 07:58:42;;;;;;;1.67;0.65;;;;;;;;;;5068456;28;20036;-61
2022/04/05 08:01:09;;;;;;;5.65;1.45;;;;;;;;;;5084626;28;20054;-61
2022/04/05 08:03:35;;;;;;;2.22;1.02;;;;;;;;;;5071668;28;20025;-60
2022/04/05 08:06:01;;;;;;;2.67;0.77;;;;;;;;;;5088080;28;20032;-61
2022/04/05 08:08:28;;;;;;;2.00;1.00;;;;;;;;;;5091319;28;20020;-60
2022/04/05 08:10:55;;;;;;;1.23;1.08;;;;;;;;;;5090964;28;20102;-60
2022/04/05 08:13:21;;;;;;;2.05;0.95;;;;;;;;;;5091519;28;20056;-60
2022/04/05 08:15:47;;;;;;;2.15;0.85;;;;;;;;;;5089313;28;20057;-60
2022/04/05 08:18:13;;;;;;;2.22;0.90;;;;;;;;;;5090931;28;20433;-60
2022/04/05 08:20:41;;;;;;;2.28;0.82;;;;;;;;;;5090611;28;20108;-60
2022/04/05 08:23:07;;;;;;;1.88;0.80;;;;;;;;;;5091781;28;20066;-60
2022/04/05 08:25:33;;;;;;;4.10;1.63;;;;;;;;;;5073617;28;20028;-60
2022/04/05 08:27:59;;;;;;;1.38;1.00;;;;;;;;;;5090767;28;20420;-60
2022/04/05 08:30:25;;;;;;;1.83;1.20;;;;;;;;;;5090667;28;20020;-60
2022/04/05 08:32:51;;;;;;;1.77;1.23;;;;;;;;;;5072985;28;20365;-60
2022/04/05 08:35:18;;;;;;;1.20;0.88;;;;;;;;;;5082569;28;20031;-60
2022/04/05 08:37:45;;;;;;;2.80;1.38;;;;;;;;;;5089226;28;20044;-60
2022/04/05 08:40:12;;;;;;;1.70;1.00;;;;;;;;;;5056228;28;20116;-61
2022/04/05 08:42:40;;;;;;;1.02;0.90;;;;;;;;;;5070644;28;20533;-60
2022/04/05 08:45:10;;;;;;;1.75;1.08;;;;;;;;;;5071462;28;20035;-61
2022/04/05 08:47:37;;;;;;;1.48;0.80;;;;;;;;;;5053830;28;20028;-61
2022/04/05 08:50:03;;;;;;;1.65;0.77;;;;;;;;;;5078849;28;20055;-60
2022/04/05 08:52:30;;;;;;;2.47;0.98;;;;;;;;;;5091597;28;20035;-61
2022/04/05 08:54:56;;;;;;;3.13;0.90;;;;;;;;;;5078771;28;20108;-60
2022/04/05 08:57:22;;;;;;;1.85;0.65;;;;;;;;;;5070891;28;20043;-60
2022/04/05 08:59:48;;;;;;;1.38;0.70;;;;;;;;;;5070485;28;20028;-60
2022/04/05 09:02:14;;;;;;;2.08;0.82;;;;;;;;;;5053341;28;20040;-60
2022/04/05 09:04:40;;;;;;;1.70;0.82;;;;;;;;;;5076070;28;20381;-60
2022/04/05 09:07:19;;;;;;;1.33;1.08;;;;;;;;;;5060880;28;20043;-60
2022/04/05 09:09:45;;;;;;;2.00;1.00;;;;;;;;;;5070187;28;20081;-60
2022/04/05 09:12:18;;;;;;;3.00;0.93;;;;;;;;;;5070878;28;20033;-61
2022/04/05 09:14:44;;;;;;;1.27;1.17;;;;;;;;;;5070338;28;20024;-61
2022/04/05 09:17:13;;;;;;;1.60;0.88;;;;;;;;;;5070716;28;20377;-61
2022/04/05 09:19:42;;;;;;;3.35;1.10;;;;;;;;;;5089723;28;20028;-61
2022/04/05 09:22:08;;;;;;;2.15;1.13;;;;;;;;;;5091140;28;20040;-61
2022/04/05 09:24:35;;;;;;;1.50;0.90;;;;;;;;;;5091179;28;20445;-61
2022/04/05 09:27:02;;;;;;;3.13;0.88;;;;;;;;;;5089264;28;20134;-61
2022/04/05 09:29:47;;;;;;;3.28;0.88;;;;;;;;;;5079830;28;20036;-61
2022/04/05 09:32:34;;;;;;;1.23;0.77;;;;;;;;;;5072756;28;20039;-60
2022/04/05 09:35:00;;;;;;;1.50;1.00;;;;;;;;;;5087368;28;20024;-61
2022/04/05 09:37:26;;;;;;;1.60;0.80;;;;;;;;;;5066576;28;20028;-60
2022/04/05 09:39:52;;;;;;;1.45;0.85;;;;;;;;;;5093758;28;20059;-61
2022/04/05 09:42:18;;;;;;;1.65;0.85;;;;;;;;;;5080793;28;20114;-60
2022/04/05 09:44:44;;;;;;;1.85;0.90;;;;;;;;;;5072784;28;20090;-60
2022/04/05 09:47:16;;;;;;;1.10;0.82;;;;;;;;;;5074709;28;20107;-60
2022/04/05 09:49:43;;;;;;;1.90;1.70;;;;;;;;;;5073568;28;20025;-60
2022/04/05 09:52:22;;;;;;;1.75;1.00;;;;;;;;;;5075843;28;20033;-60
2022/04/05 09:54:48;;;;;;;1.23;0.90;;;;;;;;;;5071683;28;20020;-60
2022/04/05 09:57:14;;;;;;;1.13;0.93;;;;;;;;;;5072868;28;20032;-60
2022/04/05 09:59:42;;;;;;;1.23;0.75;;;;;;;;;;5073151;28;20047;-61
2022/04/05 10:02:09;;;;;;;1.58;0.80;;;;;;;;;;5072973;28;20114;-62
2022/04/05 10:04:35;;;;;;;0.80;0.70;;;;;;;;;;5073260;28;20469;-61
2022/04/05 10:07:03;;;;;;;2.53;0.80;;;;;;;;;;5071224;28;20017;-61
2022/04/05 10:09:29;;;;;;;1.23;0.93;;;;;;;;;;5073887;28;20146;-60
2022/04/05 10:11:57;;;;;;;2.13;0.80;;;;;;;;;;5090760;28;20103;-60
2022/04/05 10:14:25;;;;;;;1.75;1.08;;;;;;;;;;5088708;28;20055;-60
2022/04/05 10:16:52;;;;;;;3.00;0.93;;;;;;;;;;5069984;28;20107;-60
2022/04/05 10:19:20;;;;;;;1.70;0.88;;;;;;;;;;5072834;28;20032;-60
2022/04/05 10:21:47;;;;;;;1.50;0.73;;;;;;;;;;5072335;28;20115;-59
2022/04/05 10:24:13;;;;;;;1.33;0.93;;;;;;;;;;5073822;28;20033;-61
2022/04/05 10:26:41;;;;;;;4.40;1.40;;;;;;;;;;5072826;28;20025;-60
2022/04/05 10:29:17;;;;;;;2.42;1.92;;;;;;;;;;5072883;28;20085;-60
2022/04/05 10:31:48;;;;;;;4.53;1.90;;;;;;;;;;5089065;28;20189;-59
2022/04/05 10:34:14;;;;;;;2.55;1.52;;;;;;;;;;5073422;28;20032;-59
2022/04/05 10:36:41;;;;;;;3.67;1.90;;;;;;;;;;5072657;28;20036;-60
2022/04/05 10:39:22;;;;;;;4.07;2.17;;;;;;;;;;5091488;28;20088;-59
2022/04/05 10:42:07;;;;;;;3.03;1.87;;;;;;;;;;5081858;28;20465;-61
2022/04/05 10:44:33;;;;;;;3.83;1.23;;;;;;;;;;5091717;28;20435;-59
2022/04/05 10:47:01;;;;;;;2.40;1.73;;;;;;;;;;5091751;28;20095;-60
2022/04/05 10:49:47;;;;;;;3.30;1.83;;;;;;;;;;5092396;28;20465;-61
2022/04/05 10:52:16;;;;;;;3.55;1.75;;;;;;;;;;5091281;28;20040;-60
2022/04/05 10:54:43;;;;;;;3.67;1.15;;;;;;;;;;5092341;28;20412;-64
2022/04/05 10:57:16;;;;;;;3.63;2.00;;;;;;;;;;5093649;28;20031;-61
2022/04/05 10:59:46;;;;;;;2.10;1.27;;;;;;;;;;5091405;28;20369;-63
2022/04/05 11:02:30;;;;;;;3.20;1.80;;;;;;;;;;5091736;28;20024;-63
2022/04/05 11:05:20;;;;;;;4.78;1.55;;;;;;;;;;5088353;28;20028;-59
2022/04/05 11:07:52;;;;;;;3.47;1.10;;;;;;;;;;5080906;28;20039;-63
2022/04/05 11:10:17;;;;;;;;;;;;;;;;;;5093285;28;20040;-62
2022/04/05 11:12:44;;;;;;;1.92;1.35;;;;;;;;;;5092627;28;19908;-60
2022/04/05 11:15:11;;;;;;;1.83;1.10;;;;;;;;;;5091105;28;20024;-61
2022/04/05 11:17:38;;;;;;;1.60;1.00;;;;;;;;;;5092255;28;20024;-61
2022/04/05 11:20:04;;;;;;;1.50;0.90;;;;;;;;;;5091691;28;20058;-59
2022/04/05 11:22:31;;;;;;;3.42;1.10;;;;;;;;;;5092206;28;20477;-61
2022/04/05 11:25:03;;;;;;;2.22;1.13;;;;;;;;;;5091558;28;20088;-62
2022/04/05 11:27:35;;;;;;;1.58;1.10;;;;;;;;;;5091243;28;20031;-61
2022/04/05 11:30:20;;;;;;;4.05;1.10;;;;;;;;;;5090024;28;20051;-61
2022/04/05 11:33:04;;;;;;;2.83;1.23;;;;;;;;;;5091157;28;20032;-61
2022/04/05 11:35:34;;;;;;;3.20;1.00;;;;;;;;;;5092187;28;20024;-61
2022/04/05 11:38:00;;;;;;;2.60;1.00;;;;;;;;;;5091355;28;20127;-60
2022/04/05 11:40:26;;;;;;;2.17;1.15;;;;;;;;;;5091974;28;20026;-61
2022/04/05 11:42:53;;;;;;;2.30;1.50;;;;;;;;;;5090694;28;20070;-60
2022/04/05 11:45:20;;;;;;;1.05;0.90;;;;;;;;;;5092252;28;20103;-61
2022/04/05 11:47:52;;;;;;;1.85;0.93;;;;;;;;;;5091831;28;20054;-60
2022/04/05 11:50:19;;;;;;;1.38;1.00;;;;;;;;;;5091951;28;20032;-60
2022/04/05 11:52:45;;;;;;;1.30;1.02;;;;;;;;;;5091802;28;20477;-61
2022/04/05 11:58:03;;;;;;;2.75;1.25;;;;;;;;;;5091479;28;20499;-60
2022/04/05 12:00:29;;;;;;;1.45;0.90;;;;;;;;;;5091560;28;20032;-61
2022/04/05 12:03:06;;;;;;;2.15;1.20;;;;;;;;;;5090671;28;20047;-60
2022/04/05 12:05:44;;;;;;;1.38;1.02;;;;;;;;;;5091274;28;20473;-61
2022/04/05 12:08:11;;;;;;;2.15;1.02;;;;;;;;;;5091193;28;20036;-61
2022/04/05 12:10:37;;;;;;;1.65;0.80;;;;;;;;;;5091551;28;20082;-61
2022/04/05 12:13:03;;;;;;;2.20;1.15;;;;;;;;;;5090508;28;20020;-62
2022/04/05 12:15:30;;;;;;;3.72;0.95;;;;;;;;;;5091287;28;20045;-61
2022/04/05 12:18:16;;;;;;;1.75;0.90;;;;;;;;;;5090609;28;20066;-61
2022/04/05 12:20:53;;;;;;;3.65;0.73;;;;;;;;;;5090518;28;20032;-61
2022/04/05 12:23:19;;;;;;;1.70;0.75;;;;;;;;;;5090584;28;20044;-61
2022/04/05 12:26:01;;;;;;;2.67;1.38;;;;;;;;;;5090979;28;20021;-61
2022/04/05 12:28:27;;;;;;;1.95;0.88;;;;;;;;;;5060201;28;20525;-61
2022/04/05 12:30:53;;;;;;;1.67;0.77;;;;;;;;;;5090119;28;20020;-61
2022/04/05 12:33:25;;;;;;;1.08;0.70;;;;;;;;;;5091681;28;20020;-61
2022/04/05 12:35:51;;;;;;;1.17;0.80;;;;;;;;;;5090613;28;20024;-61
2022/04/05 12:38:17;;;;;;;1.85;0.70;;;;;;;;;;5091737;28;20381;-61
2022/04/05 12:40:43;;;;;;;4.03;1.27;;;;;;;;;;5091576;28;20028;-61
2022/04/05 12:43:22;;;;;;;1.70;0.90;;;;;;;;;;5090484;28;20653;-61
2022/04/05 12:45:48;;;;;;;1.70;0.80;;;;;;;;;;5089531;28;20465;-61
2022/04/05 12:48:15;;;;;;;2.88;0.80;;;;;;;;;;5091060;28;20024;-61
2022/04/05 12:50:50;;;;;;;1.15;0.80;;;;;;;;;;5091657;28;20024;-61
2022/04/05 12:53:23;;;;;;;1.17;0.60;;;;;;;;;;5091483;28;20032;-61
2022/04/05 12:55:56;;;;;;;2.70;0.70;;;;;;;;;;5091064;28;20373;-61
2022/04/05 12:58:35;;;;;;;5.20;0.70;;;;;;;;;;5091519;28;20094;-61
2022/04/05 13:01:01;;;;;;;1.10;1.00;;;;;;;;;;5090140;28;20490;-61
2022/04/05 13:03:34;;;;;;;3.72;0.70;;;;;;;;;;5094190;28;20020;-61
2022/04/05 13:08:45;;;;;;;2.13;0.70;;;;;;;;;;5094850;28;20035;-61
2022/04/05 13:11:25;;;;;;;2.15;0.70;;;;;;;;;;5093803;28;20481;-61
2022/04/05 13:14:01;;;;;;;1.98;0.70;;;;;;;;;;5094761;28;20020;-61
2022/04/05 13:16:28;;;;;;;1.40;0.85;;;;;;;;;;5095287;28;20020;-61
2022/04/05 13:18:54;;;;;;;2.35;0.80;;;;;;;;;;5093620;28;20105;-61
2022/04/05 13:21:25;;;;;;;1.58;0.82;;;;;;;;;;5094836;28;20040;-61
2022/04/05 13:24:01;;;;;;;2.08;0.88;;;;;;;;;;5094414;28;20020;-61
2022/04/05 13:26:27;;;;;;;1.15;0.70;;;;;;;;;;5095391;28;20051;-60
2022/04/05 13:29:07;;;;;;;1.08;0.73;;;;;;;;;;5093846;28;20423;-61
2022/04/05 13:31:33;;;;;;;1.77;0.70;;;;;;;;;;5094965;28;20104;-61
2022/04/05 13:34:00;;;;;;;0.95;0.70;;;;;;;;;;5094007;28;20021;-61
2022/04/05 13:36:26;;;;;;;1.55;0.90;;;;;;;;;;5094662;28;20030;-62
2022/04/05 13:38:52;;;;;;;1.30;0.77;;;;;;;;;;5094149;28;20385;-60
2022/04/05 13:41:18;;;;;;;1.52;0.70;;;;;;;;;;5094051;28;20032;-61
2022/04/05 13:43:44;;;;;;;1.02;0.60;;;;;;;;;;5094724;28;20056;-61
2022/04/05 13:46:10;;;;;;;1.02;0.55;;;;;;;;;;5093716;28;20066;-61
2022/04/05 13:48:36;;;;;;;1.08;0.50;;;;;;;;;;5094370;28;20032;-61
2022/04/05 13:51:03;;;;;;;0.98;0.73;;;;;;;;;;5093793;28;20028;-61
2022/04/05 13:53:29;;;;;;;2.25;1.05;;;;;;;;;;5094248;28;20448;-61
2022/04/05 13:55:57;;;;;;;0.43;0.40;;;;;;;;;;5092610;28;20019;-60
2022/04/05 13:58:23;;;;;;;1.85;0.80;;;;;;;;;;5094081;28;20024;-61
2022/04/05 14:00:49;;;;;;;0.77;0.60;;;;;;;;;;5093674;28;20465;-61
2022/04/05 14:03:17;;;;;;;4.07;1.00;;;;;;;;;;5093481;28;20051;-61
2022/04/05 14:05:43;;;;;;;1.17;0.93;;;;;;;;;;5092934;28;20013;-61
2022/04/05 14:08:09;;;;;;;1.42;0.90;;;;;;;;;;5093286;28;20039;-59
2022/04/05 14:10:36;;;;;;;5.47;1.15;;;;;;;;;;5094057;28;20115;-61
2022/04/05 14:13:02;;;;;;;2.75;0.80;;;;;;;;;;5091869;28;20020;-60
2022/04/05 14:15:28;;;;;;;1.25;0.70;;;;;;;;;;5092480;28;20024;-61
2022/04/05 14:17:54;;;;;;;4.28;0.85;;;;;;;;;;5092689;28;20385;-60
2022/04/05 14:20:20;;;;;;;1.08;0.70;;;;;;;;;;5094008;28;20020;-62
2022/04/05 14:22:46;;;;;;;1.00;0.90;;;;;;;;;;5093597;28;20035;-62
2022/04/05 14:25:12;;;;;;;2.50;0.75;;;;;;;;;;5092509;28;20031;-61
2022/04/05 14:27:38;;;;;;;1.88;0.80;;;;;;;;;;5093403;28;20024;-64
2022/04/05 14:30:04;;;;;;;3.83;0.90;;;;;;;;;;5092454;28;20384;-62
2022/04/05 14:32:30;;;;;;;1.85;0.70;;;;;;;;;;5093297;28;20067;-62
2022/04/05 14:34:56;;;;;;;1.52;0.60;;;;;;;;;;5092411;28;20538;-61
2022/04/05 14:37:22;;;;;;;2.20;0.70;;;;;;;;;;5092973;28;20485;-62
2022/04/05 14:39:48;;;;;;;0.80;0.60;;;;;;;;;;5093104;28;20028;-61
2022/04/05 14:42:14;;;;;;;1.90;0.60;;;;;;;;;;5092690;28;20543;-63
2022/04/05 14:44:41;;;;;;;0.85;0.68;;;;;;;;;;5093025;28;20059;-63
2022/04/05 14:47:10;;;;;;;2.45;0.90;;;;;;;;;;5092182;28;20370;-61
2022/04/05 14:49:37;;;;;;;2.67;1.33;;;;;;;;;;5093254;28;20047;-61